Time;durP1;ratioP1;P1;durP2;ratioP2;P2;SDS_P1;SDS_P2;PMS_P1;PMS_P2;Temp;Humidity;BMP_temperature;BMP_pressure;BME280_temperature;BME280_humidity;BME280_pressure;Samples;Min_cycle;Max_cycle;Signal;HPM_P1;HPM_P2
2021/07/15 00:02:15;;;;;;;12.15;6.40;;;21.90;99.90;;;;;;5314755;27;20205;-72
2021/07/15 00:04:47;;;;;;;9.43;5.63;;;21.90;99.90;;;;;;5313673;27;20293;-75
2021/07/15 00:07:25;;;;;;;11.98;5.95;;;21.80;99.90;;;;;;5312439;27;20255;-71
2021/07/15 00:09:56;;;;;;;11.15;6.20;;;21.80;99.90;;;;;;5316617;27;20253;-70
2021/07/15 00:12:29;;;;;;;13.85;6.55;;;21.70;99.90;;;;;;5317371;27;20222;-74
2021/07/15 00:15:03;;;;;;;15.75;7.45;;;21.60;99.90;;;;;;5326386;27;20225;-73
2021/07/15 00:17:35;;;;;;;13.05;6.95;;;21.60;99.90;;;;;;5312824;27;20252;-73
2021/07/15 00:20:11;;;;;;;12.93;7.05;;;21.50;99.90;;;;;;5294368;27;20688;-74
2021/07/15 00:22:44;;;;;;;19.23;8.48;;;21.50;99.90;;;;;;5329848;27;20183;-71
2021/07/15 00:25:19;;;;;;;16.58;7.55;;;21.40;99.90;;;;;;5313168;27;20311;-70
2021/07/15 00:27:51;;;;;;;17.95;8.30;;;21.30;99.90;;;;;;5327530;27;20193;-70
2021/07/15 00:30:23;;;;;;;16.80;8.25;;;21.30;99.90;;;;;;5332758;27;20667;-71
2021/07/15 00:32:55;;;;;;;17.60;9.10;;;21.20;99.90;;;;;;5319304;27;20205;-72
2021/07/15 00:35:27;;;;;;;18.52;8.05;;;21.20;99.90;;;;;;5301128;27;20610;-69
2021/07/15 00:37:59;;;;;;;15.68;8.98;;;21.10;99.90;;;;;;5290869;28;20203;-73
2021/07/15 00:40:32;;;;;;;17.20;8.95;;;21.00;99.90;;;;;;5309648;27;20231;-71
2021/07/15 00:43:05;;;;;;;23.13;10.43;;;21.00;99.90;;;;;;5311939;27;20207;-74
2021/07/15 00:45:39;;;;;;;17.77;8.75;;;21.00;99.90;;;;;;5312723;27;20226;-72
2021/07/15 00:48:12;;;;;;;20.25;10.65;;;21.00;99.90;;;;;;5295808;27;20251;-72
2021/07/15 00:50:44;;;;;;;20.08;11.10;;;21.00;99.90;;;;;;5312765;27;20235;-70
2021/07/15 00:53:17;;;;;;;18.50;10.80;;;20.90;99.90;;;;;;5313680;27;20566;-74
2021/07/15 00:55:49;;;;;;;23.33;11.48;;;20.90;99.90;;;;;;5313397;27;20219;-73
2021/07/15 00:58:21;;;;;;;20.42;10.45;;;20.80;99.90;;;;;;5312767;27;20202;-72
2021/07/15 01:00:53;;;;;;;19.95;10.88;;;20.70;99.90;;;;;;5311762;27;20549;-73
2021/07/15 01:03:28;;;;;;;19.05;11.38;;;20.70;99.90;;;;;;5312661;27;20209;-71
2021/07/15 01:06:05;;;;;;;20.88;12.57;;;20.60;99.90;;;;;;5311550;27;20237;-76
2021/07/15 01:08:37;;;;;;;21.25;12.70;;;20.60;99.90;;;;;;5311716;27;20202;-72
2021/07/15 01:11:35;;;;;;;25.55;14.90;;;20.60;99.90;;;;;;5311802;28;20238;-70
2021/07/15 01:14:14;;;;;;;18.63;13.90;;;20.60;99.90;;;;;;5312677;27;20217;-71
2021/07/15 01:17:03;;;;;;;25.40;15.15;;;20.60;99.90;;;;;;5312488;27;20234;-72
2021/07/15 01:20:12;;;;;;;23.10;14.25;;;20.60;99.90;;;;;;5312561;27;20634;-73
2021/07/15 01:22:54;;;;;;;29.98;15.73;;;20.60;99.90;;;;;;5312479;27;20302;-74
2021/07/15 01:25:41;;;;;;;25.23;13.88;;;20.60;99.90;;;;;;5312439;27;20218;-70
2021/07/15 01:28:40;;;;;;;19.38;14.13;;;20.60;99.90;;;;;;5312507;27;20710;-73
2021/07/15 01:31:14;;;;;;;24.05;14.88;;;20.50;99.90;;;;;;5312772;27;20203;-70
2021/07/15 01:33:48;;;;;;;21.98;15.05;;;20.60;99.90;;;;;;5316740;27;20194;-73
2021/07/15 01:36:22;;;;;;;26.52;14.95;;;20.60;99.90;;;;;;5315116;27;20209;-70
2021/07/15 01:39:01;;;;;;;24.48;13.55;;;20.50;99.90;;;;;;5316805;27;20183;-72
2021/07/15 01:41:38;;;;;;;23.80;15.20;;;20.50;99.90;;;;;;5316332;27;20191;-70
2021/07/15 01:44:17;;;;;;;19.80;13.48;;;20.50;99.90;;;;;;5316835;27;20182;-71
2021/07/15 01:46:50;;;;;;;20.58;13.82;;;20.50;99.90;;;;;;5316373;27;20540;-70
2021/07/15 01:49:24;;;;;;;21.00;13.93;;;20.50;99.90;;;;;;5315423;27;20237;-72
2021/07/15 01:51:58;;;;;;;26.05;16.13;;;20.50;99.90;;;;;;5316398;27;20523;-72
2021/07/15 01:54:30;;;;;;;23.95;16.38;;;20.40;99.90;;;;;;5298196;27;20208;-70
2021/07/15 01:57:06;;;;;;;23.23;16.23;;;20.40;99.90;;;;;;5315027;27;20195;-73
2021/07/15 01:59:43;;;;;;;24.27;16.98;;;20.40;99.90;;;;;;5298389;27;20210;-70
2021/07/15 02:02:18;;;;;;;24.67;17.85;;;20.40;99.90;;;;;;5316465;27;20189;-72
2021/07/15 02:04:56;;;;;;;18.95;14.52;;;20.30;99.90;;;;;;5314875;27;20652;-73
2021/07/15 02:07:29;;;;;;;24.98;18.17;;;20.30;99.90;;;;;;5315856;27;20218;-73
2021/07/15 02:10:05;;;;;;;20.80;16.48;;;20.30;99.90;;;;;;5314529;27;20249;-71
2021/07/15 02:12:41;;;;;;;22.30;16.08;;;20.30;99.90;;;;;;5314724;27;20237;-72
2021/07/15 02:15:16;;;;;;;26.60;16.98;;;20.30;99.90;;;;;;5316721;27;20209;-71
2021/07/15 02:17:49;;;;;;;24.25;16.52;;;20.30;99.90;;;;;;5337761;27;20225;-70
2021/07/15 02:20:24;;;;;;;23.13;16.27;;;20.30;99.90;;;;;;5338269;27;20217;-72
2021/07/15 02:22:59;;;;;;;25.98;16.50;;;20.30;99.90;;;;;;5340131;27;20567;-71
2021/07/15 02:25:32;;;;;;;25.08;18.50;;;20.30;99.90;;;;;;5338839;27;20194;-71
2021/07/15 02:28:10;;;;;;;23.73;18.17;;;20.30;99.90;;;;;;5339256;27;20577;-72
2021/07/15 02:30:48;;;;;;;29.05;18.27;;;20.30;99.90;;;;;;5338134;27;20182;-72
2021/07/15 02:33:24;;;;;;;26.30;18.42;;;20.30;99.90;;;;;;5338371;27;20221;-72
2021/07/15 02:36:04;;;;;;;28.17;18.88;;;20.30;99.90;;;;;;5337839;27;20578;-72
2021/07/15 02:38:37;;;;;;;23.40;18.08;;;20.30;99.90;;;;;;5335710;27;20230;-73
2021/07/15 02:41:12;;;;;;;21.05;16.15;;;20.30;99.90;;;;;;5336336;27;20210;-72
2021/07/15 02:43:44;;;;;;;29.52;18.85;;;20.30;99.90;;;;;;5336693;27;20368;-70
2021/07/15 02:46:16;;;;;;;23.98;16.85;;;20.30;99.90;;;;;;5337102;27;20654;-72
2021/07/15 02:48:49;;;;;;;24.40;15.82;;;20.30;99.90;;;;;;5336753;27;20218;-71
2021/07/15 02:51:22;;;;;;;22.30;16.65;;;20.30;99.90;;;;;;5336811;27;20202;-73
2021/07/15 02:53:54;;;;;;;23.67;17.25;;;20.30;99.90;;;;;;5319093;27;20218;-71
2021/07/15 02:56:51;;;;;;;23.60;17.17;;;20.20;99.90;;;;;;5335726;27;20183;-72
2021/07/15 02:59:41;;;;;;;23.35;16.58;;;20.20;99.90;;;;;;5336062;27;20284;-73
2021/07/15 03:02:32;;;;;;;21.73;16.75;;;20.20;99.90;;;;;;5337383;27;20217;-71
2021/07/15 03:05:19;;;;;;;27.23;17.23;;;20.20;99.90;;;;;;5336730;27;20322;-72
2021/07/15 03:07:57;;;;;;;22.20;16.77;;;20.30;99.90;;;;;;5336588;27;20624;-72
2021/07/15 03:10:31;;;;;;;27.27;17.45;;;20.30;99.90;;;;;;5335990;27;20237;-70
2021/07/15 03:13:08;;;;;;;27.20;18.08;;;20.20;99.90;;;;;;5335470;27;20226;-71
2021/07/15 03:15:43;;;;;;;26.55;18.13;;;20.20;99.90;;;;;;5335772;27;20229;-73
2021/07/15 03:18:21;;;;;;;21.40;16.00;;;20.20;99.90;;;;;;5336245;27;20182;-71
2021/07/15 03:20:56;;;;;;;22.17;16.13;;;20.30;99.90;;;;;;5335711;27;20226;-71
2021/07/15 03:23:28;;;;;;;23.55;17.35;;;20.20;99.90;;;;;;5334744;27;20201;-73
2021/07/15 03:26:02;;;;;;;22.73;16.88;;;20.20;99.90;;;;;;5336301;27;20255;-74
2021/07/15 03:28:39;;;;;;;24.77;17.02;;;20.20;99.90;;;;;;5334978;27;20194;-73
2021/07/15 03:31:12;;;;;;;25.77;17.55;;;20.20;99.90;;;;;;5336099;27;20341;-73
2021/07/15 03:33:47;;;;;;;22.25;16.08;;;20.20;99.90;;;;;;5336363;27;20213;-72
2021/07/15 03:36:21;;;;;;;27.42;18.15;;;20.20;99.90;;;;;;5334481;27;20300;-72
2021/07/15 03:38:54;;;;;;;26.15;17.02;;;20.20;99.90;;;;;;5335928;27;20567;-73
2021/07/15 03:41:30;;;;;;;21.67;15.77;;;20.20;99.90;;;;;;5335567;27;20240;-71
2021/07/15 03:44:04;;;;;;;26.38;16.52;;;20.20;99.90;;;;;;5335495;27;20210;-74
2021/07/15 03:46:40;;;;;;;24.15;15.80;;;20.20;99.90;;;;;;5334901;27;20229;-73
2021/07/15 03:49:17;;;;;;;22.33;15.85;;;20.10;99.90;;;;;;5335851;27;20194;-72
2021/07/15 03:51:52;;;;;;;22.92;16.85;;;20.20;99.90;;;;;;5334372;27;20241;-72
2021/07/15 03:54:26;;;;;;;22.13;15.20;;;20.20;99.90;;;;;;5333650;27;20182;-71
2021/07/15 03:57:01;;;;;;;24.25;16.52;;;20.20;99.90;;;;;;5335321;27;20309;-72
2021/07/15 03:59:37;;;;;;;23.55;16.88;;;20.20;99.90;;;;;;5335505;27;20198;-73
2021/07/15 04:02:12;;;;;;;24.25;16.75;;;20.30;99.90;;;;;;5334384;27;20240;-72
2021/07/15 04:04:53;;;;;;;28.23;18.33;;;20.40;99.90;;;;;;5335081;27;20265;-74
2021/07/15 04:07:29;;;;;;;29.42;16.77;;;20.50;99.90;;;;;;5334878;27;20320;-74
2021/07/15 04:10:03;;;;;;;24.73;15.90;;;20.60;99.90;;;;;;5335118;27;20242;-72
2021/07/15 04:12:38;;;;;;;25.00;15.90;;;20.60;99.90;;;;;;5334883;27;20229;-73
2021/07/15 04:15:16;;;;;;;20.63;16.08;;;20.70;99.90;;;;;;5335594;27;20182;-72
2021/07/15 04:17:53;;;;;;;21.13;15.07;;;20.80;99.90;;;;;;5314097;27;20711;-71
2021/07/15 04:20:27;;;;;;;18.08;14.77;;;21.00;99.90;;;;;;5313602;27;20633;-73
2021/07/15 04:23:00;;;;;;;19.50;14.68;;;21.10;99.90;;;;;;5312314;27;20228;-72
2021/07/15 04:25:33;;;;;;;21.60;13.77;;;21.20;99.90;;;;;;5312900;27;20214;-72
2021/07/15 04:28:06;;;;;;;18.75;12.95;;;21.30;99.90;;;;;;5313664;27;20237;-71
2021/07/15 04:30:39;;;;;;;17.40;12.90;;;21.40;99.90;;;;;;5313272;27;20212;-72
2021/07/15 04:33:11;;;;;;;16.63;11.48;;;21.40;99.90;;;;;;5311883;27;20237;-72
2021/07/15 04:35:46;;;;;;;14.30;11.48;;;21.50;99.90;;;;;;5294986;27;20203;-73
2021/07/15 04:38:22;;;;;;;18.85;11.40;;;21.50;99.90;;;;;;5312658;27;20234;-72
2021/07/15 04:40:58;;;;;;;17.33;10.52;;;21.60;99.90;;;;;;5312339;27;20179;-73
2021/07/15 04:43:33;;;;;;;14.45;10.10;;;21.70;99.90;;;;;;5312166;27;20226;-73
2021/07/15 04:46:06;;;;;;;16.33;9.77;;;21.70;99.90;;;;;;5312897;27;20202;-72
2021/07/15 04:48:40;;;;;;;17.25;10.10;;;21.80;99.90;;;;;;5312841;27;20206;-69
2021/07/15 04:51:16;;;;;;;14.75;9.07;;;21.90;99.90;;;;;;5313051;27;20517;-72
2021/07/15 04:53:53;;;;;;;16.52;9.48;;;22.00;99.90;;;;;;5312988;27;20321;-71
2021/07/15 04:56:27;;;;;;;11.95;8.65;;;22.10;99.90;;;;;;5312929;27;20202;-72
2021/07/15 04:59:02;;;;;;;11.80;8.73;;;22.10;99.90;;;;;;5314454;27;20517;-75
2021/07/15 05:01:36;;;;;;;11.65;8.65;;;22.20;99.90;;;;;;5316052;27;20186;-70
2021/07/15 05:04:11;;;;;;;14.43;9.45;;;22.40;99.90;;;;;;5316415;27;20293;-72
2021/07/15 05:06:43;;;;;;;15.25;10.02;;;22.50;99.90;;;;;;5311658;27;20218;-73
2021/07/15 05:09:15;;;;;;;13.20;9.38;;;22.60;99.90;;;;;;5311147;27;20249;-76
2021/07/15 05:11:48;;;;;;;17.10;10.15;;;22.60;99.90;;;;;;5311506;28;20232;-70
2021/07/15 05:14:20;;;;;;;13.90;9.20;;;22.60;99.90;;;;;;5312284;27;20258;-72
2021/07/15 05:16:52;;;;;;;14.07;8.95;;;22.70;99.90;;;;;;5311826;28;20209;-72
2021/07/15 05:19:24;;;;;;;13.18;8.85;;;22.80;99.90;;;;;;5312670;27;20205;-73
2021/07/15 05:21:58;;;;;;;13.57;8.20;;;22.90;99.90;;;;;;5312471;27;20198;-70
2021/07/15 05:24:30;;;;;;;13.55;9.05;;;22.90;99.90;;;;;;5312539;27;20238;-71
2021/07/15 05:27:02;;;;;;;11.55;7.72;;;23.00;99.90;;;;;;5312953;27;20214;-72
2021/07/15 05:29:34;;;;;;;15.48;8.27;;;23.00;99.90;;;;;;5312680;27;20269;-66
2021/07/15 05:32:07;;;;;;;14.98;8.55;;;23.00;99.90;;;;;;5311288;28;20199;-72
2021/07/15 05:34:41;;;;;;;11.73;8.40;;;23.00;99.90;;;;;;5311571;28;20241;-72
2021/07/15 05:37:15;;;;;;;15.60;8.77;;;23.00;99.90;;;;;;5312691;28;20203;-70
2021/07/15 05:39:47;;;;;;;12.07;8.18;;;23.10;99.90;;;;;;5324815;27;20225;-74
2021/07/15 05:42:21;;;;;;;14.07;9.00;;;23.10;99.90;;;;;;5332778;27;20206;-72
2021/07/15 05:44:55;;;;;;;16.65;8.48;;;23.20;99.90;;;;;;5333353;27;20669;-71
2021/07/15 05:47:29;;;;;;;12.65;9.00;;;23.30;99.90;;;;;;5333326;27;20206;-71
2021/07/15 05:50:01;;;;;;;17.55;8.63;;;23.50;99.90;;;;;;5334104;27;20472;-72
2021/07/15 05:52:36;;;;;;;12.90;8.50;;;23.80;99.90;;;;;;5332337;27;20233;-70
2021/07/15 05:55:14;;;;;;;12.75;7.90;;;24.50;99.90;;;;;;5333994;27;20233;-74
2021/07/15 05:57:46;;;;;;;11.55;7.07;;;25.30;99.90;;;;;;5332397;27;20203;-72
2021/07/15 06:00:19;;;;;;;14.35;7.40;;;26.20;99.90;;;;;;5315265;27;20555;-74
2021/07/15 06:02:55;;;;;;;15.80;7.35;;;27.30;99.90;;;;;;5333872;27;20205;-72
2021/07/15 06:05:30;;;;;;;10.25;6.60;;;28.60;99.90;;;;;;5332683;27;20238;-74
2021/07/15 06:08:05;;;;;;;11.10;6.85;;;29.90;99.90;;;;;;5334203;27;20615;-72
2021/07/15 06:10:37;;;;;;;14.90;7.20;;;31.10;99.90;;;;;;5315822;27;20233;-74
2021/07/15 06:13:09;;;;;;;10.75;6.78;;;32.00;99.90;;;;;;5333626;27;20487;-73
2021/07/15 06:15:44;;;;;;;12.02;7.35;;;32.40;99.90;;;;;;5333042;27;20226;-76
2021/07/15 06:18:16;;;;;;;13.88;7.97;;;32.80;99.90;;;;;;5336706;27;20202;-72
2021/07/15 06:20:48;;;;;;;9.73;6.13;;;33.30;99.90;;;;;;5337365;27;20225;-73
2021/07/15 06:23:22;;;;;;;12.73;6.90;;;33.70;99.90;;;;;;5319446;27;20212;-74
2021/07/15 06:25:57;;;;;;;10.23;6.82;;;33.90;99.90;;;;;;5337207;27;20221;-77
2021/07/15 06:28:29;;;;;;;9.93;6.88;;;33.70;99.90;;;;;;5336692;27;20212;-76
2021/07/15 06:31:01;;;;;;;9.27;6.10;;;33.50;99.90;;;;;;5319420;27;20272;-74
2021/07/15 06:33:32;;;;;;;13.55;6.55;;;34.00;99.90;;;;;;5337242;27;20236;-73
2021/07/15 06:36:09;;;;;;;12.32;6.65;;;34.50;99.90;;;;;;5336987;27;20325;-72
2021/07/15 06:38:41;;;;;;;10.68;6.28;;;34.90;99.90;;;;;;5337811;27;20516;-73
2021/07/15 06:41:14;;;;;;;11.50;6.18;;;35.20;99.90;;;;;;5340629;27;20584;-71
2021/07/15 06:43:46;;;;;;;10.70;6.47;;;35.50;99.90;;;;;;5338818;27;20288;-73
2021/07/15 06:46:20;;;;;;;9.82;6.22;;;35.50;99.10;;;;;;5336726;27;20226;-74
2021/07/15 06:48:52;;;;;;;9.85;7.15;;;36.10;97.20;;;;;;5337800;27;20532;-74
2021/07/15 06:51:26;;;;;;;12.32;7.53;;;36.30;97.00;;;;;;5336045;27;20278;-78
2021/07/15 06:53:58;;;;;;;12.18;6.88;;;36.30;97.00;;;;;;5336825;27;20221;-76
2021/07/15 06:56:29;;;;;;;15.77;7.40;;;36.80;96.00;;;;;;5337073;27;20233;-72
2021/07/15 06:59:02;;;;;;;11.73;6.95;;;37.40;93.80;;;;;;5337323;27;20615;-74
2021/07/15 07:01:34;;;;;;;14.98;7.45;;;37.70;92.00;;;;;;5336649;27;20230;-74
2021/07/15 07:04:06;;;;;;;10.85;7.10;;;37.90;90.70;;;;;;5336856;27;20577;-74
2021/07/15 07:06:39;;;;;;;11.50;6.63;;;37.70;90.40;;;;;;5335201;27;20306;-74
2021/07/15 07:09:14;;;;;;;10.90;7.10;;;37.30;90.60;;;;;;5335508;27;20313;-74
2021/07/15 07:11:46;;;;;;;13.05;7.80;;;37.00;90.70;;;;;;5335385;27;20667;-77
2021/07/15 07:14:22;;;;;;;9.48;6.80;;;36.60;91.20;;;;;;5330695;27;20236;-76
2021/07/15 07:16:55;;;;;;;11.80;7.68;;;36.50;91.20;;;;;;5315556;27;20217;-73
2021/07/15 07:19:27;;;;;;;14.48;7.93;;;36.40;91.00;;;;;;5322495;27;20226;-73
2021/07/15 07:22:01;;;;;;;11.93;7.82;;;36.00;90.80;;;;;;5316694;27;20630;-77
2021/07/15 07:24:33;;;;;;;64.78;20.65;;;35.10;92.20;;;;;;5319981;27;20561;-75
2021/07/15 07:27:05;;;;;;;44.78;21.33;;;34.30;99.90;;;;;;5316718;27;20251;-70
2021/07/15 07:29:42;;;;;;;36.58;16.77;;;33.90;99.90;;;;;;5316804;27;20199;-67
2021/07/15 07:32:16;;;;;;;26.48;13.00;;;33.60;99.90;;;;;;5316764;27;20249;-66
2021/07/15 07:34:48;;;;;;;123.68;61.80;;;33.00;99.90;;;;;;5315039;27;20213;-73
2021/07/15 07:37:21;;;;;;;18.52;12.15;;;31.70;99.90;;;;;;5314831;27;20254;-70
2021/07/15 07:39:55;;;;;;;18.40;11.23;;;30.10;99.90;;;;;;5313448;27;20213;-70
2021/07/15 07:42:28;;;;;;;48.88;20.13;;;28.60;99.90;;;;;;5313723;27;20222;-68
2021/07/15 07:45:04;;;;;;;26.58;13.75;;;27.50;99.90;;;;;;5306745;27;20230;-68
2021/07/15 07:47:39;;;;;;;16.63;10.25;;;26.80;99.90;;;;;;5308131;27;20241;-67
2021/07/15 07:50:13;;;;;;;60.08;24.38;;;26.30;99.90;;;;;;5309529;27;20205;-66
2021/07/15 07:52:45;;;;;;;71.93;27.40;;;26.30;99.90;;;;;;5310759;27;20218;-67
2021/07/15 07:55:17;;;;;;;18.42;11.73;;;26.40;99.90;;;;;;5311833;27;20637;-64
2021/07/15 07:57:49;;;;;;;18.77;10.65;;;26.40;99.90;;;;;;5313585;27;20233;-67
2021/07/15 08:00:22;;;;;;;15.18;10.73;;;26.40;99.90;;;;;;5312642;27;20669;-68
2021/07/15 08:02:57;;;;;;;15.13;10.65;;;26.60;99.90;;;;;;5313861;27;20222;-64
2021/07/15 08:05:29;;;;;;;15.35;10.32;;;26.60;99.90;;;;;;5286937;28;20195;-69
2021/07/15 08:08:01;;;;;;;18.38;10.07;;;26.60;99.90;;;;;;5303617;27;20230;-65
2021/07/15 08:10:33;;;;;;;13.18;9.32;;;26.50;99.90;;;;;;5313527;27;20230;-65
2021/07/15 08:13:07;;;;;;;15.27;9.88;;;26.50;99.90;;;;;;5313329;27;20554;-66
2021/07/15 08:15:40;;;;;;;16.70;9.82;;;26.50;99.90;;;;;;5311713;27;20198;-69
2021/07/15 08:18:12;;;;;;;17.35;9.77;;;26.40;99.90;;;;;;5312304;27;20226;-67
2021/07/15 08:20:44;;;;;;;14.70;10.35;;;26.70;99.90;;;;;;5295656;27;20202;-69
2021/07/15 08:23:17;;;;;;;18.50;10.23;;;27.10;99.90;;;;;;5312892;27;20297;-70
2021/07/15 08:25:49;;;;;;;16.17;9.57;;;27.30;99.90;;;;;;5313540;27;20198;-68
2021/07/15 08:28:22;;;;;;;17.17;10.15;;;27.30;99.90;;;;;;5313230;27;20522;-69
2021/07/15 08:30:56;;;;;;;20.52;9.45;;;27.20;99.90;;;;;;5313017;27;20202;-72
2021/07/15 08:33:31;;;;;;;43.00;16.30;;;27.30;99.90;;;;;;5312820;27;20222;-67
2021/07/15 08:36:06;;;;;;;23.48;11.23;;;27.30;99.90;;;;;;5312698;27;20183;-67
2021/07/15 08:38:40;;;;;;;19.90;9.98;;;27.60;99.90;;;;;;5313133;27;20206;-67
2021/07/15 08:41:12;;;;;;;32.15;14.07;;;28.10;99.90;;;;;;5312936;27;20202;-72
2021/07/15 08:43:49;;;;;;;20.73;10.93;;;28.30;99.90;;;;;;5312686;27;20247;-70
2021/07/15 08:46:23;;;;;;;40.38;14.80;;;28.30;99.90;;;;;;5313172;27;20531;-69
2021/07/15 08:48:55;;;;;;;21.92;11.95;;;28.30;99.90;;;;;;5312640;27;20298;-70
2021/07/15 08:51:28;;;;;;;19.42;9.73;;;28.50;99.90;;;;;;5311093;27;20227;-69
2021/07/15 08:54:00;;;;;;;17.83;9.73;;;28.70;99.90;;;;;;5311974;27;20219;-70
2021/07/15 08:56:39;;;;;;;17.38;9.02;;;29.00;99.90;;;;;;5312680;27;20229;-67
2021/07/15 08:59:15;;;;;;;15.15;9.18;;;29.30;99.90;;;;;;5312893;27;20495;-70
2021/07/15 09:01:52;;;;;;;14.68;9.40;;;29.60;99.90;;;;;;5312768;27;20535;-71
2021/07/15 09:04:26;;;;;;;18.33;9.63;;;29.80;99.90;;;;;;5312550;27;20207;-70
2021/07/15 09:06:58;;;;;;;21.08;9.48;;;29.80;99.90;;;;;;5312695;27;20198;-69
2021/07/15 09:09:30;;;;;;;15.88;9.00;;;29.90;99.90;;;;;;5311971;27;20238;-70
2021/07/15 09:12:02;;;;;;;15.57;8.23;;;30.10;99.90;;;;;;5311476;28;20209;-68
2021/07/15 09:14:50;;;;;;;15.18;7.25;;;30.30;99.90;;;;;;5310011;28;20233;-68
2021/07/15 09:17:33;;;;;;;12.95;6.18;;;30.30;99.90;;;;;;5312223;28;20198;-68
2021/07/15 09:20:17;;;;;;;13.57;6.82;;;30.30;99.90;;;;;;5312344;28;20239;-67
2021/07/15 09:23:10;;;;;;;17.25;9.25;;;30.30;99.90;;;;;;5312325;27;20201;-67
2021/07/15 09:25:42;;;;;;;49.75;20.92;;;30.20;99.90;;;;;;5312165;28;20223;-70
2021/07/15 09:28:19;;;;;;;62.92;23.65;;;29.90;99.90;;;;;;5312143;28;20222;-67
2021/07/15 09:30:54;;;;;;;24.17;11.82;;;29.50;99.90;;;;;;5312103;28;20194;-68
2021/07/15 09:33:26;;;;;;;17.30;8.82;;;29.30;99.90;;;;;;5310936;28;20294;-64
2021/07/15 09:36:13;;;;;;;13.95;8.07;;;29.30;99.90;;;;;;5294138;28;20199;-67
2021/07/15 09:38:48;;;;;;;16.35;8.52;;;29.50;99.90;;;;;;5311097;28;20195;-69
2021/07/15 09:41:23;;;;;;;22.13;11.05;;;29.40;99.90;;;;;;5312079;27;20248;-69
2021/07/15 09:44:00;;;;;;;16.83;8.25;;;29.40;99.90;;;;;;5312323;27;20198;-67
2021/07/15 09:46:37;;;;;;;14.77;8.07;;;29.50;99.90;;;;;;5311786;28;20258;-64
2021/07/15 09:49:09;;;;;;;12.38;7.38;;;29.50;99.90;;;;;;5310126;28;20206;-69
2021/07/15 09:51:45;;;;;;;12.32;7.00;;;29.40;99.90;;;;;;5311202;27;20234;-62
2021/07/15 09:54:22;;;;;;;14.68;5.85;;;29.30;99.90;;;;;;5316864;27;20533;-67
2021/07/15 09:56:54;;;;;;;15.63;6.30;;;29.30;99.90;;;;;;5316011;27;20226;-66
2021/07/15 09:59:50;;;;;;;17.27;7.20;;;29.30;99.90;;;;;;5316250;27;20203;-66
2021/07/15 10:02:29;;;;;;;14.05;8.00;;;29.10;99.90;;;;;;5316588;27;20349;-61
2021/07/15 10:05:03;;;;;;;14.15;7.43;;;29.10;99.90;;;;;;5316831;27;20198;-66
2021/07/15 10:07:35;;;;;;;11.93;7.45;;;29.30;99.90;;;;;;5316719;27;20542;-64
2021/07/15 10:10:23;;;;;;;20.38;8.60;;;29.40;99.90;;;;;;5314793;27;20230;-65
2021/07/15 10:12:55;;;;;;;13.48;7.63;;;29.50;99.90;;;;;;5314480;27;20241;-69
2021/07/15 10:15:30;;;;;;;14.18;7.65;;;29.60;99.90;;;;;;5315676;27;20201;-66
2021/07/15 10:18:02;;;;;;;17.27;7.75;;;29.80;99.90;;;;;;5313723;27;20221;-67
2021/07/15 10:20:34;;;;;;;12.75;6.97;;;29.80;99.90;;;;;;5315501;27;20546;-64
2021/07/15 10:23:07;;;;;;;11.55;7.35;;;29.90;99.90;;;;;;5315486;27;20234;-69
2021/07/15 10:25:42;;;;;;;32.92;11.88;;;29.70;99.90;;;;;;5315392;27;20100;-67
2021/07/15 10:28:18;;;;;;;22.80;10.75;;;29.40;99.90;;;;;;5297719;27;20272;-68
2021/07/15 10:30:54;;;;;;;16.05;7.72;;;29.10;99.90;;;;;;5297853;27;20211;-67
2021/07/15 10:33:29;;;;;;;19.38;7.97;;;29.00;99.90;;;;;;5315750;27;20222;-69
2021/07/15 10:36:05;;;;;;;40.40;16.83;;;28.90;99.90;;;;;;5315070;27;20242;-57
2021/07/15 10:38:41;;;;;;;20.20;10.23;;;28.90;99.90;;;;;;5314369;27;20218;-59
2021/07/15 10:41:14;;;;;;;19.45;9.10;;;29.00;99.90;;;;;;5315331;27;20271;-60
2021/07/15 10:43:46;;;;;;;17.05;8.00;;;29.20;99.90;;;;;;5315236;27;20227;-54
2021/07/15 10:46:21;;;;;;;15.45;7.10;;;29.40;99.90;;;;;;5297176;27;20187;-58
2021/07/15 10:48:54;;;;;;;18.65;9.40;;;29.40;99.90;;;;;;5314198;27;20186;-60
2021/07/15 10:51:26;;;;;;;15.00;6.75;;;29.50;99.90;;;;;;5317004;27;20540;-55
2021/07/15 10:54:01;;;;;;;18.67;7.82;;;29.70;99.90;;;;;;5314318;27;20223;-59
2021/07/15 10:56:34;;;;;;;15.60;6.60;;;29.90;99.90;;;;;;5316046;27;20198;-62
2021/07/15 10:59:29;;;;;;;13.70;6.65;;;30.10;99.90;;;;;;5324080;27;20206;-57
2021/07/15 11:02:03;;;;;;;12.43;6.28;;;30.20;99.90;;;;;;5321879;27;20198;-59
2021/07/15 11:04:42;;;;;;;10.45;6.18;;;30.10;99.90;;;;;;5311683;27;20258;-60
2021/07/15 11:07:31;;;;;;;11.88;5.82;;;30.10;99.90;;;;;;5310272;27;20309;-50
2021/07/15 11:10:19;;;;;;;10.95;5.32;;;30.10;99.90;;;;;;5313216;27;20262;-61
2021/07/15 11:13:04;;;;;;;9.85;5.82;;;30.00;99.90;;;;;;5320083;27;20203;-61
2021/07/15 11:15:53;;;;;;;11.40;6.10;;;30.00;99.90;;;;;;5329342;27;20237;-55
2021/07/15 11:18:41;;;;;;;10.35;6.15;;;30.00;99.90;;;;;;5306473;27;20194;-56
2021/07/15 11:21:25;;;;;;;12.25;5.60;;;29.90;99.90;;;;;;5320303;27;20244;-60
2021/07/15 11:24:06;;;;;;;9.25;5.40;;;29.70;99.90;;;;;;5330106;27;20195;-57
2021/07/15 11:26:43;;;;;;;11.43;5.43;;;29.60;99.90;;;;;;5316643;27;20507;-59
2021/07/15 11:29:15;;;;;;;10.65;5.28;;;29.60;99.90;;;;;;5320111;27;20203;-57
2021/07/15 11:31:52;;;;;;;9.95;4.40;;;29.50;99.90;;;;;;5315151;27;20225;-57
2021/07/15 11:34:50;;;;;;;12.68;4.57;;;29.50;99.90;;;;;;5302604;27;20223;-59
2021/07/15 11:37:36;;;;;;;7.10;4.35;;;29.30;99.90;;;;;;5289109;27;20640;-52
2021/07/15 11:40:34;;;;;;;13.02;4.88;;;29.30;99.90;;;;;;5233055;28;20275;-56
2021/07/15 11:43:22;;;;;;;13.98;5.38;;;29.40;99.90;;;;;;5220015;28;20296;-57
2021/07/15 11:46:10;;;;;;;11.82;5.38;;;29.50;99.90;;;;;;5227999;28;20194;-58
2021/07/15 11:49:07;;;;;;;14.23;5.97;;;29.50;99.90;;;;;;5227867;28;20201;-64
2021/07/15 11:51:45;;;;;;;14.38;5.80;;;29.40;99.90;;;;;;5244264;28;20208;-59
2021/07/15 11:54:35;;;;;;;13.45;6.10;;;29.40;99.90;;;;;;5227485;28;20229;-60
2021/07/15 11:57:13;;;;;;;17.55;6.47;;;29.30;99.90;;;;;;5239942;28;20193;-61
2021/07/15 11:59:49;;;;;;;19.13;7.13;;;29.00;99.90;;;;;;5231684;28;20239;-55
2021/07/15 12:02:37;;;;;;;12.68;6.45;;;29.00;99.90;;;;;;5241382;28;20223;-59
2021/07/15 12:05:13;;;;;;;13.88;5.95;;;29.00;99.90;;;;;;5238107;28;20197;-61
2021/07/15 12:08:08;;;;;;;14.63;6.50;;;29.10;99.90;;;;;;5243834;28;20267;-55
2021/07/15 12:10:48;;;;;;;16.13;6.60;;;29.10;99.90;;;;;;5249158;27;20310;-57
2021/07/15 12:13:20;;;;;;;16.30;6.72;;;29.30;99.90;;;;;;5318650;27;20226;-57
2021/07/15 12:15:55;;;;;;;15.07;6.93;;;29.40;99.90;;;;;;5329991;27;20195;-54
2021/07/15 12:18:27;;;;;;;14.15;6.32;;;29.50;99.90;;;;;;5315651;27;20263;-57
2021/07/15 12:20:59;;;;;;;14.98;7.25;;;29.70;99.90;;;;;;5317382;27;20195;-58
2021/07/15 12:23:37;;;;;;;10.40;6.65;;;29.80;99.90;;;;;;5321589;27;20256;-56
2021/07/15 12:26:12;;;;;;;14.98;6.57;;;29.90;99.90;;;;;;5299557;27;20210;-55
2021/07/15 12:28:46;;;;;;;18.58;7.75;;;30.10;99.90;;;;;;5321652;27;20687;-55
2021/07/15 12:31:20;;;;;;;16.02;6.85;;;30.10;99.90;;;;;;5306666;27;20281;-55
2021/07/15 12:33:53;;;;;;;13.70;6.53;;;30.10;99.90;;;;;;5312495;27;20235;-66
2021/07/15 12:36:29;;;;;;;13.20;6.78;;;30.20;99.90;;;;;;5320229;27;20521;-58
2021/07/15 12:39:14;;;;;;;16.35;7.07;;;30.30;99.90;;;;;;5333567;27;20217;-56
2021/07/15 12:41:46;;;;;;;16.13;7.43;;;30.20;99.90;;;;;;5331076;27;20206;-63
2021/07/15 12:44:20;;;;;;;18.50;7.45;;;30.10;99.90;;;;;;5333014;27;20225;-59
2021/07/15 12:46:57;;;;;;;17.50;8.05;;;30.00;99.90;;;;;;5322250;27;20209;-58
2021/07/15 12:49:30;;;;;;;16.88;7.55;;;29.80;99.90;;;;;;5309107;27;20603;-60
2021/07/15 12:52:03;;;;;;;17.63;7.85;;;29.80;99.90;;;;;;5311859;27;20201;-61
2021/07/15 12:54:38;;;;;;;16.42;6.93;;;29.60;99.90;;;;;;5311877;27;20244;-52
2021/07/15 12:57:12;;;;;;;15.05;7.40;;;29.60;99.90;;;;;;5311664;27;20206;-59
2021/07/15 12:59:44;;;;;;;15.23;7.40;;;29.40;99.90;;;;;;5330604;27;20190;-51
2021/07/15 13:02:34;;;;;;;16.67;6.85;;;29.20;99.90;;;;;;5312939;27;20646;-56
2021/07/15 13:05:20;;;;;;;18.40;6.65;;;29.10;99.90;;;;;;5324033;27;20648;-58
2021/07/15 13:07:53;;;;;;;16.58;7.30;;;29.10;99.90;;;;;;5316520;27;20198;-59
2021/07/15 13:14:12;;;;;;;13.18;7.32;;;29.30;99.90;;;;;;5311000;27;20241;-57
2021/07/15 13:16:18;;;;;;;17.42;7.30;;;29.70;99.90;;;;;;5302161;27;20222;-58
2021/07/15 13:18:50;;;;;;;16.30;7.40;;;29.70;99.90;;;;;;5322983;27;20203;-57
2021/07/15 13:21:26;;;;;;;14.93;6.85;;;29.90;99.90;;;;;;5326227;27;20244;-54